Time,TemperatureF,DewpointF,PressureIn,WindDirection,WindDirectionDegrees,WindSpeedMPH,WindSpeedGustMPH,Humidity,HourlyPrecipIn,Conditions,Clouds,dailyrainin,SoftwareType,DateUTC
2013-02-03 00:00:00,23.8,20.8,29.88,SSE,163,3.4,3.8,88,0.05,,,0.00,VWS V14.00,2013-02-03 05:00:00,
2013-02-03 00:01:00,23.8,20.8,29.88,SSE,163,0.0,2.7,88,0.05,,,0.00,VWS V14.00,2013-02-03 05:01:00,
2013-02-03 00:06:00,23.8,20.8,29.88,SE,133,3.0,4.3,88,0.05,,,0.00,VWS V14.00,2013-02-03 05:06:00,
2013-02-03 00:11:00,24.0,21.0,29.88,South,187,0.0,0.0,88,0.04,,,0.00,VWS V14.00,2013-02-03 05:11:00,
2013-02-03 00:16:00,23.8,20.8,29.88,SSE,152,0.0,2.7,88,0.03,,,0.00,VWS V14.00,2013-02-03 05:16:00,
2013-02-03 00:21:00,23.8,20.8,29.88,SSE,152,0.0,0.0,88,0.03,,,0.00,VWS V14.00,2013-02-03 05:21:00,
2013-02-03 00:26:00,23.8,20.8,29.88,SSE,152,3.0,3.2,88,0.04,,,0.01,VWS V14.00,2013-02-03 05:26:00,
2013-02-03 00:31:00,23.8,20.8,29.88,SSE,154,2.5,2.7,88,0.03,,,0.01,VWS V14.00,2013-02-03 05:31:00,
2013-02-03 00:37:00,24.2,21.4,29.88,South,188,3.0,3.8,89,0.03,,,0.01,VWS V14.00,2013-02-03 05:37:00,
2013-02-03 00:42:00,24.2,21.4,29.88,SSE,154,3.0,3.2,89,0.04,,,0.02,VWS V14.00,2013-02-03 05:42:00,
2013-02-03 00:47:00,24.2,21.4,29.88,South,177,3.4,3.8,89,0.03,,,0.02,VWS V14.00,2013-02-03 05:47:00,
2013-02-03 00:52:00,24.2,21.4,29.88,South,189,3.0,3.8,89,0.03,,,0.02,VWS V14.00,2013-02-03 05:52:00,
2013-02-03 00:57:00,24.4,21.6,29.88,SE,144,3.4,3.8,89,0.03,,,0.02,VWS V14.00,2013-02-03 05:57:00,
2013-02-03 01:02:00,24.4,21.6,29.88,SSE,150,2.5,3.8,89,0.02,,,0.02,VWS V14.00,2013-02-03 06:02:00,
2013-02-03 01:07:00,24.5,21.8,29.85,South,184,3.0,3.2,89,0.02,,,0.02,VWS V14.00,2013-02-03 06:07:00,
2013-02-03 01:12:00,24.5,21.8,29.85,SE,135,3.4,4.8,89,0.02,,,0.02,VWS V14.00,2013-02-03 06:12:00,
2013-02-03 01:17:00,24.5,21.8,29.85,SE,138,3.4,4.3,89,0.02,,,0.02,VWS V14.00,2013-02-03 06:17:00,
2013-02-03 01:22:00,24.7,21.7,29.85,SE,128,3.4,3.8,88,0.02,,,0.02,VWS V14.00,2013-02-03 06:22:00,
2013-02-03 01:27:00,25.1,22.0,29.85,South,172,3.0,4.8,88,0.01,,,0.02,VWS V14.00,2013-02-03 06:27:00,
2013-02-03 01:33:00,25.3,22.2,29.85,WNW,284,4.4,6.4,88,0.01,,,0.02,VWS V14.00,2013-02-03 06:33:00,
2013-02-03 01:38:00,25.3,22.0,29.85,South,187,5.9,7.0,87,0.01,,,0.02,VWS V14.00,2013-02-03 06:38:00,
2013-02-03 01:43:00,25.7,22.3,29.85,West,268,5.9,6.4,87,0.00,,,0.02,VWS V14.00,2013-02-03 06:43:00,
2013-02-03 01:48:00,25.7,22.3,29.85,WSW,243,5.4,6.4,87,0.01,,,0.03,VWS V14.00,2013-02-03 06:48:00,
2013-02-03 01:53:00,26.0,22.4,29.85,WSW,257,6.4,7.0,86,0.01,,,0.03,VWS V14.00,2013-02-03 06:53:00,
2013-02-03 01:58:00,26.0,22.1,29.85,SW,232,5.4,7.0,85,0.01,,,0.03,VWS V14.00,2013-02-03 06:58:00,
2013-02-03 02:03:00,26.6,22.4,29.85,West,270,8.9,10.5,84,0.01,,,0.03,VWS V14.00,2013-02-03 07:03:00,
2013-02-03 02:08:00,26.6,21.8,29.85,WSW,240,6.9,9.1,82,0.01,,,0.03,VWS V14.00,2013-02-03 07:08:00,
2013-02-03 02:13:00,26.8,21.7,29.85,SW,224,9.1,9.9,81,0.01,,,0.03,VWS V14.00,2013-02-03 07:13:00,
2013-02-03 02:18:00,26.8,21.4,29.85,West,263,8.9,9.7,80,0.01,,,0.03,VWS V14.00,2013-02-03 07:18:00,
2013-02-03 02:23:00,27.0,21.3,29.85,SW,232,9.1,15.3,79,0.01,,,0.03,VWS V14.00,2013-02-03 07:23:00,
2013-02-03 02:29:00,27.0,21.0,29.85,West,277,9.6,10.5,78,0.01,,,0.03,VWS V14.00,2013-02-03 07:29:00,
2013-02-03 02:34:00,27.0,21.0,29.85,West,266,12.1,14.8,78,0.01,,,0.03,VWS V14.00,2013-02-03 07:34:00,
2013-02-03 02:39:00,27.0,21.0,29.85,West,271,16.5,18.0,78,0.01,,,0.03,VWS V14.00,2013-02-03 07:39:00,
2013-02-03 02:44:00,27.0,20.7,29.85,WSW,258,9.6,12.6,77,0.01,,,0.03,VWS V14.00,2013-02-03 07:44:00,
2013-02-03 02:49:00,27.0,20.7,29.82,WSW,257,6.4,12.1,77,0.00,,,0.03,VWS V14.00,2013-02-03 07:49:00,
2013-02-03 02:54:00,27.1,20.6,29.82,WSW,255,9.1,12.1,76,0.00,,,0.03,VWS V14.00,2013-02-03 07:54:00,
2013-02-03 02:59:00,27.0,20.1,29.82,WSW,244,5.9,10.5,75,0.00,,,0.03,VWS V14.00,2013-02-03 07:59:00,
2013-02-03 03:04:00,27.0,19.8,29.82,WNW,289,8.4,9.7,74,0.00,,,0.03,VWS V14.00,2013-02-03 08:04:00,
2013-02-03 03:09:00,27.1,19.6,29.82,West,268,6.4,7.0,73,0.00,,,0.03,VWS V14.00,2013-02-03 08:09:00,
2013-02-03 03:14:00,27.1,19.6,29.82,West,268,9.1,9.9,73,0.00,,,0.03,VWS V14.00,2013-02-03 08:14:00,
2013-02-03 03:19:00,27.1,19.0,29.82,SW,232,10.6,14.2,71,0.00,,,0.03,VWS V14.00,2013-02-03 08:19:00,
2013-02-03 03:25:00,27.1,19.0,29.82,WSW,252,8.9,10.5,71,0.00,,,0.03,VWS V14.00,2013-02-03 08:25:00,
2013-02-03 03:30:00,27.0,19.1,29.82,SW,216,13.5,14.8,72,0.00,,,0.03,VWS V14.00,2013-02-03 08:30:00,
2013-02-03 03:35:00,27.0,19.1,29.82,West,264,9.1,12.1,72,0.00,,,0.03,VWS V14.00,2013-02-03 08:35:00,
2013-02-03 03:40:00,27.0,19.1,29.82,West,270,8.4,9.9,72,0.00,,,0.03,VWS V14.00,2013-02-03 08:40:00,
2013-02-03 03:45:00,26.8,19.3,29.82,West,267,6.9,9.7,73,0.00,,,0.03,VWS V14.00,2013-02-03 08:45:00,
2013-02-03 03:50:00,26.8,19.6,29.82,West,268,11.1,12.1,74,0.00,,,0.03,VWS V14.00,2013-02-03 08:50:00,
2013-02-03 03:55:00,26.8,19.3,29.82,WSW,243,9.6,10.5,73,0.00,,,0.03,VWS V14.00,2013-02-03 08:55:00,
2013-02-03 04:00:00,26.8,19.0,29.82,West,270,8.9,12.6,72,0.00,,,0.03,VWS V14.00,2013-02-03 09:00:00,
2013-02-03 04:05:00,26.8,19.0,29.82,SW,218,11.1,12.1,72,0.00,,,0.03,VWS V14.00,2013-02-03 09:05:00,
2013-02-03 04:10:00,26.8,19.0,29.82,WSW,248,11.6,15.3,72,0.00,,,0.03,VWS V14.00,2013-02-03 09:10:00,
2013-02-03 04:15:00,26.8,19.0,29.82,SW,227,3.9,7.5,72,0.00,,OVC050,0.03,VWS V14.00,2013-02-03 09:15:00,
2013-02-03 04:21:00,26.6,18.5,29.82,West,272,14.5,15.8,71,0.00,,OVC050,0.03,VWS V14.00,2013-02-03 09:21:00,
2013-02-03 04:26:00,26.6,18.5,29.82,SW,228,6.9,7.5,71,0.00,,OVC050,0.03,VWS V14.00,2013-02-03 09:26:00,
2013-02-03 04:31:00,26.6,18.5,29.82,West,267,8.9,10.5,71,0.00,,OVC050,0.03,VWS V14.00,2013-02-03 09:31:00,
2013-02-03 04:36:00,26.6,18.1,29.79,WSW,238,10.6,11.5,70,0.00,,OVC050,0.03,VWS V14.00,2013-02-03 09:36:00,
2013-02-03 04:41:00,26.6,18.5,29.79,West,263,5.9,6.4,71,0.00,,OVC050,0.03,VWS V14.00,2013-02-03 09:41:00,
2013-02-03 04:46:00,26.4,18.3,29.79,West,263,6.4,9.1,71,0.00,,OVC050,0.03,VWS V14.00,2013-02-03 09:46:00,
2013-02-03 04:51:00,26.4,18.3,29.79,WSW,254,5.9,7.5,71,0.00,,OVC050,0.03,VWS V14.00,2013-02-03 09:51:00,
2013-02-03 04:56:00,26.4,18.0,29.79,SSW,196,7.9,9.1,70,0.00,,OVC050,0.03,VWS V14.00,2013-02-03 09:56:00,
2013-02-03 05:01:00,26.2,17.8,29.79,SW,220,3.9,9.1,70,0.00,,OVC090,0.03,VWS V14.00,2013-02-03 10:01:00,
2013-02-03 05:06:00,26.0,17.6,29.79,SW,230,6.4,9.1,70,0.00,,OVC090,0.03,VWS V14.00,2013-02-03 10:06:00,
2013-02-03 05:12:00,26.2,17.4,29.79,SSW,197,5.9,7.0,69,0.00,,OVC090,0.03,VWS V14.00,2013-02-03 10:12:00,
2013-02-03 05:17:00,26.2,16.1,29.79,SW,228,15.5,16.9,65,0.00,,OVC090,0.03,VWS V14.00,2013-02-03 10:17:00,
2013-02-03 05:22:00,26.2,15.7,29.79,WSW,241,5.9,14.8,64,0.00,,OVC090,0.03,VWS V14.00,2013-02-03 10:22:00,
2013-02-03 05:27:00,26.2,16.1,29.79,West,273,9.1,9.9,65,0.00,,OVC090,0.03,VWS V14.00,2013-02-03 10:27:00,
2013-02-03 05:32:00,26.0,16.2,29.79,West,268,5.9,9.7,66,0.00,,OVC090,0.03,VWS V14.00,2013-02-03 10:32:00,
2013-02-03 05:37:00,25.8,16.1,29.82,West,273,8.9,10.5,66,0.00,,OVC090,0.03,VWS V14.00,2013-02-03 10:37:00,
2013-02-03 05:42:00,25.8,16.1,29.82,West,262,6.9,7.5,66,0.00,,OVC090,0.03,VWS V14.00,2013-02-03 10:42:00,
2013-02-03 05:47:00,25.7,16.2,29.82,SW,233,6.4,9.7,67,0.00,,OVC090,0.03,VWS V14.00,2013-02-03 10:47:00,
2013-02-03 05:53:00,25.7,16.2,29.79,SSW,206,3.9,6.4,67,0.00,,OVC090,0.03,VWS V14.00,2013-02-03 10:53:00,
2013-02-03 05:58:00,25.5,16.1,29.79,WSW,250,8.9,10.5,67,0.00,,OVC090,0.03,VWS V14.00,2013-02-03 10:58:00,
2013-02-03 06:03:00,25.1,13.9,29.82,NW,304,14.5,22.5,62,0.00,,OVC033,0.03,VWS V14.00,2013-02-03 11:03:00,
2013-02-03 06:08:00,25.1,13.6,29.82,WSW,244,8.9,9.9,61,0.00,,OVC033,0.03,VWS V14.00,2013-02-03 11:08:00,
2013-02-03 06:13:00,24.9,13.4,29.82,SW,234,9.1,12.1,61,0.00,,OVC033,0.03,VWS V14.00,2013-02-03 11:13:00,
2013-02-03 06:18:00,24.9,13.8,29.82,West,275,8.9,9.7,62,0.00,,OVC033,0.03,VWS V14.00,2013-02-03 11:18:00,
2013-02-03 06:23:00,24.5,14.1,29.82,West,276,6.9,9.9,64,0.00,,OVC033,0.03,VWS V14.00,2013-02-03 11:23:00,
2013-02-03 06:28:00,24.5,14.1,29.82,West,265,11.6,15.8,64,0.00,,OVC033,0.03,VWS V14.00,2013-02-03 11:28:00,
2013-02-03 06:33:00,24.2,13.4,29.82,West,279,11.6,12.6,63,0.00,,OVC033,0.03,VWS V14.00,2013-02-03 11:33:00,
2013-02-03 06:38:00,24.2,13.4,29.82,SW,233,8.4,12.6,63,0.00,,OVC033,0.03,VWS V14.00,2013-02-03 11:38:00,
2013-02-03 06:43:00,24.2,13.4,29.82,West,278,11.6,17.4,63,0.00,,OVC033,0.03,VWS V14.00,2013-02-03 11:43:00,
2013-02-03 06:48:00,24.2,13.4,29.82,West,279,6.4,12.1,63,0.00,,OVC031,0.03,VWS V14.00,2013-02-03 11:48:00,
2013-02-03 06:53:00,24.2,13.4,29.82,WSW,256,8.4,12.6,63,0.00,,OVC031,0.03,VWS V14.00,2013-02-03 11:53:00,
2013-02-03 06:59:00,24.2,13.1,29.82,West,269,8.4,9.7,62,0.00,,OVC031,0.03,VWS V14.00,2013-02-03 11:59:00,
2013-02-03 07:04:00,24.2,13.4,29.82,WSW,253,12.1,13.2,63,0.00,,OVC033,0.03,VWS V14.00,2013-02-03 12:04:00,
2013-02-03 07:09:00,24.2,13.4,29.82,West,260,6.4,12.1,63,0.00,,OVC033,0.03,VWS V14.00,2013-02-03 12:09:00,
2013-02-03 07:14:00,24.0,13.6,29.82,West,263,12.1,13.2,64,0.00,,OVC033,0.03,VWS V14.00,2013-02-03 12:14:00,
2013-02-03 07:19:00,23.8,13.8,29.82,West,266,11.1,12.1,65,0.00,,OVC033,0.03,VWS V14.00,2013-02-03 12:19:00,
2013-02-03 07:24:00,23.8,13.8,29.82,WSW,248,8.4,12.1,65,0.00,,OVC033,0.03,VWS V14.00,2013-02-03 12:24:00,
2013-02-03 07:29:00,23.8,13.8,29.82,West,266,9.1,12.6,65,0.00,,OVC033,0.03,VWS V14.00,2013-02-03 12:29:00,
2013-02-03 07:34:00,24.0,13.9,29.82,SSW,199,8.4,10.5,65,0.00,,OVC033,0.03,VWS V14.00,2013-02-03 12:34:00,
2013-02-03 07:39:00,24.0,13.6,29.82,WSW,258,4.4,6.4,64,0.00,,OVC033,0.03,VWS V14.00,2013-02-03 12:39:00,
2013-02-03 07:44:00,24.0,13.2,29.82,WSW,253,8.4,9.1,63,0.00,,OVC033,0.03,VWS V14.00,2013-02-03 12:44:00,
2013-02-03 07:49:00,24.0,13.2,29.82,West,274,6.4,9.1,63,0.00,,OVC033,0.03,VWS V14.00,2013-02-03 12:49:00,
2013-02-03 07:55:00,24.0,13.6,29.82,West,273,14.0,15.8,64,0.00,,OVC033,0.03,VWS V14.00,2013-02-03 12:55:00,
2013-02-03 08:00:00,24.0,13.6,29.82,West,262,8.9,9.9,64,0.00,,OVC033,0.03,VWS V14.00,2013-02-03 13:00:00,
2013-02-03 08:05:00,24.0,13.9,29.82,West,274,6.9,9.7,65,0.00,,,0.03,VWS V14.00,2013-02-03 13:05:00,
2013-02-03 08:10:00,24.2,14.1,29.82,West,264,8.9,9.9,65,0.00,,,0.03,VWS V14.00,2013-02-03 13:10:00,
2013-02-03 08:15:00,24.2,14.1,29.82,West,261,4.9,7.5,65,0.00,,,0.03,VWS V14.00,2013-02-03 13:15:00,
2013-02-03 08:20:00,24.2,14.5,29.82,WNW,290,8.4,9.7,66,0.00,,,0.03,VWS V14.00,2013-02-03 13:20:00,
2013-02-03 08:25:00,24.4,14.3,29.82,SSW,198,6.4,9.1,65,0.00,,,0.03,VWS V14.00,2013-02-03 13:25:00,
2013-02-03 08:30:00,24.2,14.1,29.82,WSW,256,3.0,4.3,65,0.00,,,0.03,VWS V14.00,2013-02-03 13:30:00,
2013-02-03 08:36:00,24.4,14.3,29.82,SSW,202,4.4,7.0,65,0.00,,,0.03,VWS V14.00,2013-02-03 13:36:00,
2013-02-03 08:41:00,24.4,14.6,29.82,South,186,4.4,4.8,66,0.00,,,0.03,VWS V14.00,2013-02-03 13:41:00,
2013-02-03 08:46:00,24.4,14.6,29.82,WSW,247,3.4,4.3,66,0.00,,,0.03,VWS V14.00,2013-02-03 13:46:00,
2013-02-03 08:51:00,24.5,14.8,29.82,South,189,6.9,7.5,66,0.00,,,0.03,VWS V14.00,2013-02-03 13:51:00,
2013-02-03 08:56:00,24.7,15.0,29.82,SSW,193,5.9,6.4,66,0.00,,,0.03,VWS V14.00,2013-02-03 13:56:00,
2013-02-03 09:01:00,24.9,14.5,29.82,SW,227,3.4,7.0,64,0.00,,,0.03,VWS V14.00,2013-02-03 14:01:00,
2013-02-03 09:06:00,25.1,14.3,29.82,WSW,240,3.0,3.8,63,0.00,,OVC022,0.03,VWS V14.00,2013-02-03 14:06:00,
2013-02-03 09:11:00,25.1,13.6,29.82,WSW,241,11.6,12.6,61,0.00,,OVC022,0.03,VWS V14.00,2013-02-03 14:11:00,
2013-02-03 09:16:00,25.1,13.6,29.82,WSW,241,4.9,7.0,61,0.00,,OVC022,0.03,VWS V14.00,2013-02-03 14:16:00,
2013-02-03 09:21:00,25.1,13.6,29.82,West,264,5.9,9.1,61,0.00,,OVC022,0.03,VWS V14.00,2013-02-03 14:21:00,
2013-02-03 09:26:00,25.1,13.9,29.82,SSW,204,6.4,7.0,62,0.00,,OVC022,0.03,VWS V14.00,2013-02-03 14:26:00,
2013-02-03 09:31:00,25.1,13.9,29.82,SSW,210,4.4,5.9,62,0.00,,OVC022,0.03,VWS V14.00,2013-02-03 14:31:00,
2013-02-03 09:36:00,24.9,14.1,29.82,SSW,199,3.0,3.8,63,0.00,,OVC022,0.03,VWS V14.00,2013-02-03 14:36:00,
2013-02-03 09:41:00,25.1,14.6,29.82,SSE,166,4.4,4.8,64,0.00,,OVC022,0.03,VWS V14.00,2013-02-03 14:41:00,
2013-02-03 09:46:00,25.1,15.0,29.82,SSW,201,3.9,4.3,65,0.00,,OVC022,0.03,VWS V14.00,2013-02-03 14:46:00,
2013-02-03 09:51:00,25.3,15.5,29.82,SSW,192,2.5,3.2,66,0.00,,OVC022,0.03,VWS V14.00,2013-02-03 14:51:00,
2013-02-03 09:56:00,25.5,16.1,29.82,South,189,4.4,4.8,67,0.00,,OVC022,0.03,VWS V14.00,2013-02-03 14:56:00,
2013-02-03 10:01:00,25.7,16.6,29.82,South,191,3.0,3.2,68,0.00,,,0.03,VWS V14.00,2013-02-03 15:01:00,
2013-02-03 10:07:00,25.8,16.8,29.79,South,174,3.9,4.3,68,0.00,,,0.03,VWS V14.00,2013-02-03 15:07:00,
2013-02-03 10:12:00,26.0,16.9,29.79,South,177,4.4,4.8,68,0.00,,,0.03,VWS V14.00,2013-02-03 15:12:00,
2013-02-03 10:17:00,26.4,17.3,29.79,South,173,5.4,6.4,68,0.00,,,0.03,VWS V14.00,2013-02-03 15:17:00,
2013-02-03 10:22:00,27.0,17.5,29.79,South,185,5.4,5.9,67,0.00,,,0.03,VWS V14.00,2013-02-03 15:22:00,
2013-02-03 10:27:00,26.8,17.0,29.79,SSW,203,4.4,5.9,66,0.00,,,0.03,VWS V14.00,2013-02-03 15:27:00,
2013-02-03 10:32:00,26.8,16.6,29.79,SSW,199,4.4,4.8,65,0.00,,,0.03,VWS V14.00,2013-02-03 15:32:00,
2013-02-03 10:37:00,26.8,16.2,29.79,SSW,192,3.4,4.3,64,0.00,,,0.03,VWS V14.00,2013-02-03 15:37:00,
2013-02-03 10:42:00,26.8,15.9,29.79,West,264,6.4,8.6,63,0.00,,,0.03,VWS V14.00,2013-02-03 15:42:00,
2013-02-03 10:47:00,27.0,16.0,29.79,WSW,256,3.4,7.5,63,0.00,,,0.03,VWS V14.00,2013-02-03 15:47:00,
2013-02-03 10:52:00,27.1,16.2,29.79,SW,227,5.9,7.5,63,0.00,,,0.03,VWS V14.00,2013-02-03 15:52:00,
2013-02-03 10:58:00,27.7,16.8,29.79,SW,233,8.4,9.1,63,0.00,,,0.03,VWS V14.00,2013-02-03 15:58:00,
2013-02-03 11:03:00,27.7,16.4,29.79,West,261,9.1,9.9,62,0.00,,,0.03,VWS V14.00,2013-02-03 16:03:00,
2013-02-03 11:08:00,27.9,16.2,29.79,SSW,203,6.4,12.1,61,0.00,,,0.03,VWS V14.00,2013-02-03 16:08:00,
2013-02-03 11:13:00,28.2,16.2,29.79,WSW,253,9.6,10.5,60,0.00,,,0.03,VWS V14.00,2013-02-03 16:13:00,
2013-02-03 11:19:00,28.4,16.3,29.79,WSW,248,9.6,13.2,60,0.00,,,0.03,VWS V14.00,2013-02-03 16:19:00,
2013-02-03 11:24:00,28.6,16.5,29.79,SSW,212,8.9,9.7,60,0.00,,,0.03,VWS V14.00,2013-02-03 16:24:00,
2013-02-03 11:29:00,28.4,16.3,29.79,SSW,212,6.9,9.7,60,0.00,,,0.03,VWS V14.00,2013-02-03 16:29:00,
2013-02-03 11:34:00,28.6,16.9,29.79,SW,230,9.6,10.5,61,0.00,,,0.03,VWS V14.00,2013-02-03 16:34:00,
2013-02-03 11:39:00,28.8,17.4,29.79,WSW,253,3.4,7.0,62,0.00,,,0.03,VWS V14.00,2013-02-03 16:39:00,
2013-02-03 11:44:00,28.8,17.4,29.79,South,190,4.4,9.1,62,0.00,,,0.03,VWS V14.00,2013-02-03 16:44:00,
2013-02-03 11:49:00,29.2,18.2,29.79,SSW,210,5.4,5.9,63,0.00,,,0.03,VWS V14.00,2013-02-03 16:49:00,
2013-02-03 11:54:00,29.4,18.7,29.79,South,184,5.4,7.5,64,0.00,,,0.03,VWS V14.00,2013-02-03 16:54:00,
2013-02-03 12:00:00,29.0,18.4,29.79,SW,225,5.9,10.5,64,0.00,,,0.03,VWS V14.00,2013-02-03 17:00:00,
2013-02-03 12:05:00,28.8,18.2,29.79,SW,220,5.9,10.5,64,0.00,,,0.03,VWS V14.00,2013-02-03 17:05:00,
2013-02-03 12:10:00,29.0,18.7,29.79,West,269,8.9,9.7,65,0.00,,,0.03,VWS V14.00,2013-02-03 17:10:00,
2013-02-03 12:15:00,28.8,17.8,29.79,WSW,258,8.4,10.5,63,0.00,,,0.03,VWS V14.00,2013-02-03 17:15:00,
2013-02-03 12:20:00,29.0,18.0,29.76,WSW,241,5.4,9.9,63,0.00,,,0.03,VWS V14.00,2013-02-03 17:20:00,
2013-02-03 12:25:00,29.5,18.5,29.76,South,172,11.6,12.6,63,0.00,,,0.03,VWS V14.00,2013-02-03 17:25:00,
2013-02-03 12:30:00,29.4,17.6,29.76,WSW,257,6.9,7.5,61,0.00,,,0.03,VWS V14.00,2013-02-03 17:30:00,
2013-02-03 12:35:00,29.5,17.8,29.76,South,191,4.4,10.5,61,0.00,,,0.03,VWS V14.00,2013-02-03 17:35:00,
2013-02-03 12:40:00,30.3,18.1,29.76,West,273,5.4,7.5,60,0.00,,,0.03,VWS V14.00,2013-02-03 17:40:00,
2013-02-03 12:45:00,30.5,18.6,29.76,West,265,6.9,7.5,61,0.00,,,0.03,VWS V14.00,2013-02-03 17:45:00,
2013-02-03 12:51:00,30.7,18.0,29.76,West,276,4.4,6.4,59,0.00,,,0.03,VWS V14.00,2013-02-03 17:51:00,
2013-02-03 12:55:00,30.3,17.7,29.76,WSW,248,6.9,8.1,59,0.00,,,0.03,VWS V14.00,2013-02-03 17:55:00,
2013-02-03 13:00:00,30.1,17.5,29.76,SSW,208,5.9,9.1,59,0.00,,,0.03,VWS V14.00,2013-02-03 18:00:00,
2013-02-03 13:06:00,30.3,17.7,29.76,WSW,248,8.4,9.1,59,0.00,,,0.03,VWS V14.00,2013-02-03 18:06:00,
2013-02-03 13:11:00,30.5,17.5,29.76,West,269,6.4,7.5,58,0.00,,,0.03,VWS V14.00,2013-02-03 18:11:00,
2013-02-03 13:16:00,30.3,17.3,29.76,West,262,5.9,9.9,58,0.00,,,0.03,VWS V14.00,2013-02-03 18:16:00,
2013-02-03 13:21:00,30.5,17.9,29.76,WSW,240,10.1,11.0,59,0.00,,,0.03,VWS V14.00,2013-02-03 18:21:00,
2013-02-03 13:26:00,30.1,17.1,29.76,WSW,256,8.9,11.5,58,0.00,,,0.03,VWS V14.00,2013-02-03 18:26:00,
2013-02-03 13:31:00,29.9,17.0,29.76,WSW,253,9.6,10.5,58,0.00,,,0.03,VWS V14.00,2013-02-03 18:31:00,
2013-02-03 13:36:00,30.1,17.5,29.76,WSW,244,13.5,14.8,59,0.00,,,0.03,VWS V14.00,2013-02-03 18:36:00,
2013-02-03 13:41:00,29.9,17.4,29.76,West,276,13.0,14.2,59,0.00,,,0.03,VWS V14.00,2013-02-03 18:41:00,
2013-02-03 13:46:00,29.5,17.0,29.76,West,265,11.6,12.6,59,0.00,,,0.03,VWS V14.00,2013-02-03 18:46:00,
2013-02-03 13:51:00,29.4,17.2,29.76,SW,223,11.6,13.2,60,0.00,,,0.03,VWS V14.00,2013-02-03 18:51:00,
2013-02-03 13:56:00,29.4,17.2,29.76,WSW,246,9.6,12.6,60,0.00,,,0.03,VWS V14.00,2013-02-03 18:56:00,
2013-02-03 14:01:00,29.4,17.2,29.76,SW,223,5.4,9.9,60,0.00,,,0.03,VWS V14.00,2013-02-03 19:01:00,
2013-02-03 14:06:00,29.5,17.8,29.76,WSW,247,8.9,9.7,61,0.00,,,0.03,VWS V14.00,2013-02-03 19:06:00,
2013-02-03 14:11:00,29.5,17.8,29.76,SW,230,8.9,9.7,61,0.00,,,0.03,VWS V14.00,2013-02-03 19:11:00,
2013-02-03 14:16:00,29.4,16.8,29.76,West,260,5.9,7.5,59,0.00,,,0.03,VWS V14.00,2013-02-03 19:16:00,
2013-02-03 14:21:00,29.4,16.8,29.76,SW,216,12.1,13.2,59,0.00,,,0.03,VWS V14.00,2013-02-03 19:21:00,
2013-02-03 14:27:00,29.7,17.6,29.76,SW,215,3.9,9.1,60,0.00,,,0.03,VWS V14.00,2013-02-03 19:27:00,
2013-02-03 14:32:00,29.5,17.4,29.76,WSW,244,7.9,8.6,60,0.00,,,0.03,VWS V14.00,2013-02-03 19:32:00,
2013-02-03 14:37:00,29.5,17.4,29.76,West,268,6.9,10.5,60,0.00,,,0.03,VWS V14.00,2013-02-03 19:37:00,
2013-02-03 14:42:00,29.4,16.8,29.76,West,269,9.6,14.8,59,0.00,,,0.03,VWS V14.00,2013-02-03 19:42:00,
2013-02-03 14:47:00,29.4,16.8,29.76,WSW,239,6.9,15.8,59,0.00,,,0.03,VWS V14.00,2013-02-03 19:47:00,
2013-02-03 14:52:00,28.6,16.1,29.76,WSW,251,11.1,14.2,59,0.00,,,0.03,VWS V14.00,2013-02-03 19:52:00,
2013-02-03 14:57:00,28.6,16.1,29.76,West,263,18.0,19.6,59,0.00,,,0.03,VWS V14.00,2013-02-03 19:57:00,
2013-02-03 15:02:00,28.4,15.9,29.76,SW,236,8.4,18.5,59,0.00,,,0.03,VWS V14.00,2013-02-03 20:02:00,
2013-02-03 15:07:00,28.2,16.5,29.76,WSW,241,9.1,12.1,61,0.00,,,0.03,VWS V14.00,2013-02-03 20:07:00,
2013-02-03 15:12:00,28.2,16.2,29.76,West,279,16.0,17.4,60,0.00,,,0.03,VWS V14.00,2013-02-03 20:12:00,
2013-02-03 15:17:00,28.4,16.3,29.76,WSW,254,12.1,14.2,60,0.00,,,0.03,VWS V14.00,2013-02-03 20:17:00,
2013-02-03 15:22:00,27.9,15.8,29.76,SSW,196,6.4,20.9,60,0.00,,,0.03,VWS V14.00,2013-02-03 20:22:00,
2013-02-03 15:27:00,27.7,15.6,29.76,WSW,243,9.1,14.8,60,0.00,,,0.03,VWS V14.00,2013-02-03 20:27:00,
2013-02-03 15:32:00,27.3,15.3,29.76,WSW,243,6.9,16.4,60,0.00,,,0.03,VWS V14.00,2013-02-03 20:32:00,
2013-02-03 15:37:00,27.5,15.5,29.76,WNW,285,8.9,13.2,60,0.00,,,0.03,VWS V14.00,2013-02-03 20:37:00,
2013-02-03 15:43:00,27.5,15.5,29.76,West,267,13.5,16.9,60,0.00,,,0.03,VWS V14.00,2013-02-03 20:43:00,
2013-02-03 15:48:00,27.3,15.3,29.79,WSW,238,12.1,14.8,60,0.00,,,0.03,VWS V14.00,2013-02-03 20:48:00,
2013-02-03 15:53:00,27.1,15.1,29.79,West,273,14.5,15.8,60,0.00,,,0.03,VWS V14.00,2013-02-03 20:53:00,
2013-02-03 15:58:00,26.8,15.1,29.79,West,259,11.6,14.8,61,0.00,,,0.03,VWS V14.00,2013-02-03 20:58:00,
2013-02-03 16:03:00,26.6,15.3,29.79,West,263,9.1,15.8,62,0.00,,OVC023,0.03,VWS V14.00,2013-02-03 21:03:00,
2013-02-03 16:08:00,26.6,15.3,29.79,SW,235,8.9,15.3,62,0.00,,OVC023,0.03,VWS V14.00,2013-02-03 21:08:00,
2013-02-03 16:13:00,26.4,15.9,29.79,WSW,251,9.1,12.1,64,0.00,,OVC023,0.03,VWS V14.00,2013-02-03 21:13:00,
2013-02-03 16:18:00,26.4,15.9,29.79,SW,226,9.1,13.2,64,0.00,,OVC023,0.03,VWS V14.00,2013-02-03 21:18:00,
2013-02-03 16:23:00,26.2,16.1,29.79,West,271,11.1,13.2,65,0.00,,OVC023,0.03,VWS V14.00,2013-02-03 21:23:00,
2013-02-03 16:28:00,26.0,16.2,29.79,West,270,10.1,12.6,66,0.00,,OVC023,0.03,VWS V14.00,2013-02-03 21:28:00,
2013-02-03 16:33:00,25.8,16.1,29.82,West,271,9.1,15.3,66,0.00,,OVC023,0.03,VWS V14.00,2013-02-03 21:33:00,
2013-02-03 16:38:00,25.8,16.4,29.82,SW,219,12.1,15.3,67,0.00,,OVC023,0.03,VWS V14.00,2013-02-03 21:38:00,
2013-02-03 16:43:00,25.8,16.8,29.82,SW,234,6.4,7.5,68,0.00,,OVC023,0.03,VWS V14.00,2013-02-03 21:43:00,
2013-02-03 16:48:00,25.7,16.9,29.82,NNW,341,6.9,9.9,69,0.00,,OVC023,0.03,VWS V14.00,2013-02-03 21:48:00,
2013-02-03 16:53:00,25.7,16.9,29.82,SW,221,6.4,7.5,69,0.00,,OVC023,0.03,VWS V14.00,2013-02-03 21:53:00,
2013-02-03 16:58:00,25.7,16.9,29.82,SW,230,6.9,9.7,69,0.00,,OVC023,0.03,VWS V14.00,2013-02-03 21:58:00,
2013-02-03 17:03:00,25.5,17.1,29.82,WSW,250,6.4,7.5,70,0.00,,OVC021,0.03,VWS V14.00,2013-02-03 22:03:00,
2013-02-03 17:08:00,25.5,17.1,29.82,West,262,7.9,12.6,70,0.00,,OVC021,0.03,VWS V14.00,2013-02-03 22:08:00,
2013-02-03 17:13:00,25.3,16.2,29.82,SSW,199,8.4,9.9,68,0.00,,OVC021,0.03,VWS V14.00,2013-02-03 22:13:00,
2013-02-03 17:18:00,25.3,15.9,29.82,WSW,252,13.5,15.8,67,0.00,,OVC021,0.03,VWS V14.00,2013-02-03 22:18:00,
2013-02-03 17:23:00,25.1,15.4,29.82,WSW,252,14.0,15.8,66,0.00,,OVC021,0.03,VWS V14.00,2013-02-03 22:23:00,
2013-02-03 17:28:00,25.1,15.0,29.82,West,264,14.5,15.8,65,0.00,,OVC021,0.03,VWS V14.00,2013-02-03 22:28:00,
2013-02-03 17:33:00,25.1,14.6,29.82,WNW,292,8.9,19.6,64,0.00,,OVC021,0.03,VWS V14.00,2013-02-03 22:33:00,
2013-02-03 17:39:00,25.1,14.6,29.82,WSW,243,14.5,15.8,64,0.00,,OVC021,0.03,VWS V14.00,2013-02-03 22:39:00,
2013-02-03 17:44:00,24.7,14.6,29.82,West,272,14.5,16.4,65,0.00,,OVC021,0.03,VWS V14.00,2013-02-03 22:44:00,
2013-02-03 17:49:00,24.7,14.6,29.82,WSW,256,9.6,15.3,65,0.00,,OVC021,0.03,VWS V14.00,2013-02-03 22:49:00,
2013-02-03 17:54:00,24.7,14.3,29.82,SW,230,11.6,12.6,64,0.00,,OVC021,0.03,VWS V14.00,2013-02-03 22:54:00,
2013-02-03 17:59:00,24.5,14.5,29.82,WSW,249,12.1,15.3,65,0.00,,OVC021,0.03,VWS V14.00,2013-02-03 22:59:00,
2013-02-03 18:04:00,24.5,14.8,29.85,WSW,256,14.0,22.5,66,0.00,,,0.03,VWS V14.00,2013-02-03 23:04:00,
2013-02-03 18:09:00,24.4,15.7,29.85,West,261,9.1,10.5,69,0.00,,,0.03,VWS V14.00,2013-02-03 23:09:00,
2013-02-03 18:14:00,24.2,15.1,29.85,WSW,254,9.6,14.8,68,0.00,,,0.03,VWS V14.00,2013-02-03 23:14:00,
2013-02-03 18:19:00,24.2,14.5,29.85,West,265,23.6,25.8,66,0.00,,,0.03,VWS V14.00,2013-02-03 23:19:00,
2013-02-03 18:24:00,24.0,13.9,29.85,WSW,248,10.1,15.8,65,0.00,,,0.03,VWS V14.00,2013-02-03 23:24:00,
2013-02-03 18:29:00,24.2,13.4,29.85,West,277,16.5,18.0,63,0.00,,,0.03,VWS V14.00,2013-02-03 23:29:00,
2013-02-03 18:34:00,24.0,12.9,29.85,WSW,249,14.5,15.8,62,0.00,,,0.03,VWS V14.00,2013-02-03 23:34:00,
2013-02-03 18:39:00,24.2,12.7,29.85,SW,218,16.5,18.0,61,0.00,,,0.03,VWS V14.00,2013-02-03 23:39:00,
2013-02-03 18:45:00,24.2,11.9,29.85,WSW,257,17.0,21.5,59,0.00,,,0.03,VWS V14.00,2013-02-03 23:45:00,
2013-02-03 18:50:00,24.0,12.5,29.85,West,275,12.1,20.1,61,0.00,,,0.03,VWS V14.00,2013-02-03 23:50:00,
2013-02-03 18:55:00,23.8,12.3,29.85,WSW,241,9.1,15.3,61,0.00,,,0.03,VWS V14.00,2013-02-03 23:55:00,
2013-02-03 19:00:00,23.8,12.0,29.85,SW,216,8.9,13.2,60,0.00,,,0.03,VWS V14.00,2013-02-04 00:00:00,
2013-02-03 19:05:00,23.6,11.8,29.85,West,278,10.1,19.1,60,0.00,,,0.03,VWS V14.00,2013-02-04 00:05:00,
2013-02-03 19:10:00,23.6,12.1,29.85,WSW,250,9.1,13.7,61,0.00,,,0.03,VWS V14.00,2013-02-04 00:10:00,
2013-02-03 19:15:00,23.6,12.1,29.85,SW,228,14.0,15.8,61,0.00,,,0.03,VWS V14.00,2013-02-04 00:15:00,
2013-02-03 19:20:00,23.6,11.8,29.85,SSW,198,14.5,18.0,60,0.00,,,0.03,VWS V14.00,2013-02-04 00:20:00,
2013-02-03 19:25:00,23.8,11.6,29.85,SW,225,5.9,9.7,59,0.00,,,0.03,VWS V14.00,2013-02-04 00:25:00,
2013-02-03 19:30:00,23.6,12.1,29.85,WNW,288,16.5,18.0,61,0.00,,,0.03,VWS V14.00,2013-02-04 00:30:00,
2013-02-03 19:36:00,23.4,12.0,29.88,WSW,237,9.6,15.8,61,0.00,,,0.03,VWS V14.00,2013-02-04 00:36:00,
2013-02-03 19:41:00,23.4,12.4,29.88,WSW,240,10.6,13.7,62,0.00,,,0.03,VWS V14.00,2013-02-04 00:41:00,
2013-02-03 19:46:00,23.6,12.1,29.88,SW,221,11.1,15.8,61,0.00,,,0.03,VWS V14.00,2013-02-04 00:46:00,
2013-02-03 19:51:00,23.6,12.1,29.88,SW,217,9.1,9.9,61,0.00,,,0.03,VWS V14.00,2013-02-04 00:51:00,
2013-02-03 19:56:00,23.6,12.1,29.88,SW,233,11.6,15.3,61,0.00,,,0.03,VWS V14.00,2013-02-04 00:56:00,
2013-02-03 20:01:00,23.4,12.0,29.88,WSW,243,8.9,12.6,61,0.00,,,0.03,VWS V14.00,2013-02-04 01:01:00,
2013-02-03 20:06:00,23.4,12.0,29.88,SW,225,8.9,17.4,61,0.00,,,0.03,VWS V14.00,2013-02-04 01:06:00,
2013-02-03 20:11:00,23.4,12.0,29.88,SW,227,13.5,15.8,61,0.00,,,0.03,VWS V14.00,2013-02-04 01:11:00,
2013-02-03 20:16:00,23.4,11.6,29.88,South,185,8.9,15.3,60,0.00,,,0.03,VWS V14.00,2013-02-04 01:16:00,
2013-02-03 20:21:00,23.2,12.2,29.88,WSW,240,4.4,7.0,62,0.00,,,0.03,VWS V14.00,2013-02-04 01:21:00,
2013-02-03 20:26:00,23.2,12.2,29.88,South,187,8.4,18.0,62,0.00,,,0.03,VWS V14.00,2013-02-04 01:26:00,
2013-02-03 20:31:00,23.2,12.2,29.88,WSW,254,14.5,15.8,62,0.00,,,0.03,VWS V14.00,2013-02-04 01:31:00,
2013-02-03 20:36:00,23.2,12.5,29.88,South,184,6.4,18.0,63,0.00,,,0.03,VWS V14.00,2013-02-04 01:36:00,
2013-02-03 20:41:00,23.2,12.2,29.88,SSW,212,17.0,18.5,62,0.00,,,0.03,VWS V14.00,2013-02-04 01:41:00,
2013-02-03 20:46:00,23.1,12.7,29.88,SW,217,15.5,16.9,64,0.00,,,0.03,VWS V14.00,2013-02-04 01:46:00,
2013-02-03 20:52:00,22.9,12.9,29.88,West,263,13.0,14.2,65,0.00,,,0.03,VWS V14.00,2013-02-04 01:52:00,
2013-02-03 20:57:00,22.9,11.1,29.88,SW,232,11.1,18.0,60,0.00,,,0.03,VWS V14.00,2013-02-04 01:57:00,
2013-02-03 21:02:00,22.7,10.5,29.88,West,272,20.7,25.8,59,0.00,,,0.03,VWS V14.00,2013-02-04 02:02:00,
2013-02-03 21:07:00,22.5,10.7,29.91,WSW,250,13.0,14.2,60,0.00,,,0.03,VWS V14.00,2013-02-04 02:07:00,
2013-02-03 21:12:00,22.3,10.2,29.91,West,269,11.1,12.1,59,0.00,,,0.03,VWS V14.00,2013-02-04 02:12:00,
2013-02-03 21:17:00,22.3,9.8,29.91,WNW,291,12.1,23.6,58,0.00,,,0.03,VWS V14.00,2013-02-04 02:17:00,
2013-02-03 21:22:00,22.1,9.2,29.91,WSW,241,9.1,9.9,57,0.00,,,0.03,VWS V14.00,2013-02-04 02:22:00,
2013-02-03 21:27:00,22.1,9.2,29.91,SW,217,14.0,15.8,57,0.00,,,0.03,VWS V14.00,2013-02-04 02:27:00,
2013-02-03 21:32:00,22.0,8.7,29.91,SW,224,12.1,13.2,56,0.00,,,0.03,VWS V14.00,2013-02-04 02:32:00,
2013-02-03 21:37:00,21.8,8.5,29.91,SSW,204,9.6,11.5,56,0.00,,,0.03,VWS V14.00,2013-02-04 02:37:00,
2013-02-03 21:42:00,21.8,8.5,29.91,WSW,246,14.5,15.8,56,0.00,,,0.03,VWS V14.00,2013-02-04 02:42:00,
2013-02-03 21:47:00,21.6,8.3,29.91,WSW,256,13.5,20.9,56,0.00,,,0.03,VWS V14.00,2013-02-04 02:47:00,
2013-02-03 21:52:00,21.6,8.3,29.91,WSW,251,10.6,15.3,56,0.00,,,0.03,VWS V14.00,2013-02-04 02:52:00,
2013-02-03 21:57:00,21.6,8.3,29.91,SSW,200,5.9,9.9,56,0.00,,,0.03,VWS V14.00,2013-02-04 02:57:00,
2013-02-03 22:02:00,21.6,8.3,29.94,West,261,8.9,13.2,56,0.00,,,0.03,VWS V14.00,2013-02-04 03:02:00,
2013-02-03 22:07:00,21.6,7.9,29.94,WSW,252,11.6,13.2,55,0.00,,,0.03,VWS V14.00,2013-02-04 03:07:00,
2013-02-03 22:12:00,21.6,7.5,29.94,WSW,257,16.5,18.0,54,0.00,,,0.03,VWS V14.00,2013-02-04 03:12:00,
2013-02-03 22:17:00,21.6,7.5,29.94,WSW,247,12.1,15.3,54,0.00,,,0.03,VWS V14.00,2013-02-04 03:17:00,
2013-02-03 22:22:00,21.4,6.9,29.94,WNW,282,11.6,15.3,53,0.00,,,0.03,VWS V14.00,2013-02-04 03:22:00,
2013-02-03 22:27:00,21.4,7.3,29.94,SW,220,5.9,15.3,54,0.00,,,0.03,VWS V14.00,2013-02-04 03:27:00,
2013-02-03 22:33:00,21.2,7.2,29.94,SW,236,8.4,12.6,54,0.00,,,0.03,VWS V14.00,2013-02-04 03:33:00,
2013-02-03 22:38:00,21.2,7.2,29.94,SSW,204,10.1,11.0,54,0.00,,,0.03,VWS V14.00,2013-02-04 03:38:00,
2013-02-03 22:43:00,21.2,7.2,29.94,WSW,250,11.1,12.6,54,0.00,,,0.03,VWS V14.00,2013-02-04 03:43:00,
2013-02-03 22:48:00,21.2,6.8,29.94,WSW,250,6.9,18.5,53,0.00,,,0.03,VWS V14.00,2013-02-04 03:48:00,
2013-02-03 22:53:00,21.0,6.6,29.94,West,261,5.4,9.7,53,0.00,,,0.03,VWS V14.00,2013-02-04 03:53:00,
2013-02-03 22:58:00,21.0,7.0,29.94,WSW,255,6.4,10.5,54,0.00,,,0.03,VWS V14.00,2013-02-04 03:58:00,
2013-02-03 23:03:00,21.0,7.0,29.94,WSW,250,13.5,14.8,54,0.00,,,0.03,VWS V14.00,2013-02-04 04:03:00,
2013-02-03 23:08:00,21.0,7.0,29.94,West,261,9.6,13.2,54,0.00,,,0.03,VWS V14.00,2013-02-04 04:08:00,
2013-02-03 23:13:00,21.0,7.0,29.94,West,275,12.1,14.2,54,0.00,,,0.03,VWS V14.00,2013-02-04 04:13:00,
2013-02-03 23:18:00,21.0,7.0,29.94,SW,225,5.9,9.1,54,0.00,,,0.03,VWS V14.00,2013-02-04 04:18:00,
2013-02-03 23:23:00,20.8,7.2,29.94,SW,220,6.4,12.6,55,0.00,,,0.03,VWS V14.00,2013-02-04 04:23:00,
2013-02-03 23:28:00,20.8,7.6,29.94,SW,222,9.1,9.9,56,0.00,,,0.03,VWS V14.00,2013-02-04 04:28:00,
2013-02-03 23:33:00,20.8,7.6,29.94,West,271,12.5,14.8,56,0.00,,,0.03,VWS V14.00,2013-02-04 04:33:00,
2013-02-03 23:39:00,20.8,7.6,29.94,WSW,258,8.4,11.5,56,0.00,,,0.03,VWS V14.00,2013-02-04 04:39:00,
2013-02-03 23:44:00,20.6,7.4,29.94,SW,233,5.9,9.1,56,0.00,,,0.03,VWS V14.00,2013-02-04 04:44:00,
2013-02-03 23:49:00,20.6,7.1,29.94,WSW,246,11.1,14.8,55,0.00,,,0.03,VWS V14.00,2013-02-04 04:49:00,
2013-02-03 23:54:00,20.6,7.1,29.94,SSW,209,11.6,15.3,55,0.00,,,0.03,VWS V14.00,2013-02-04 04:54:00,
2013-02-03 23:59:00,20.6,6.7,29.94,WSW,243,12.1,13.2,54,0.00,,,0.03,VWS V14.00,2013-02-04 04:59:00,